Selected Arizona METAR Reports


Metar stations are listed by distance from this station - near to far. The 'official' reporting station for the Greater Phoenix area is KPHX - Phoenix/Sky Harbor.

KDVT - Phoenix/Deer Valley, Arizona, USA
Distance from station: NW 4mi, 7km
Updated: Wed 26 Apr 2017 1953 MST
Clear
Clear
 Wind from WSW
Wind: WSW 15 mph , 24 km/h
Temperature: 81°F , 27°C
Dew Point: 25°F , -4°C
Humidity: 13%
Barometer: 29.69 inHg , 1005.4 hPa
Clouds: Clear
Visibility: 10 miles , 16 km
2017/04/27 02:53 KDVT 270253Z 24013KT 10SM CLR 27/M04 A2969 RMK AO2 SLP034 T02721044 56001
KSDL - Scottsdale, Arizona, USA
Distance from station: ESE 6mi, 9km
Updated: Wed 26 Apr 2017 1953 MST
Clear
Clear
 Wind from SW
Wind: SW 3 mph , 6 km/h
Temperature: 82°F , 28°C
Dew Point: 23°F , -5°C
Humidity: 11%
Barometer: 29.72 inHg , 1006.4 hPa
Clouds: Clear
Visibility: 10 miles , 16 km
2017/04/27 02:53 KSDL 270253Z 22003KT 10SM CLR 28/M05 A2972 RMK AO2 SLP043 T02781050 55000
 
KPHX - Phoenix/Sky Harbor, Arizona, USA
Distance from station: S 15mi, 24km
Updated: Wed 26 Apr 2017 1951 MST
Mostly cloudy
Mostly cloudy
 Wind from SW
Wind: SW 10 mph , 17 km/h
Temperature: 82°F , 28°C
Dew Point: 27°F , -3°C
Humidity: 13%
Barometer: 29.68 inHg , 1005.1 hPa
Clouds: Mostly cloudy
Visibility: 10 miles , 16 km
Cloud details: Few Clouds 14000 ft
Mostly cloudy 25000 ft
Mostly cloudy 29000 ft
2017/04/27 02:51 KPHX 270251Z 23009KT 10SM FEW140 BKN250 BKN290 28/M03 A2968 RMK AO2 SLP035 T02831033 55003
KGEU - Glendale, Arizona, USA
Distance from station: WSW 19mi, 30km
Updated: Wed 26 Apr 2017 1947 MST
Mostly cloudy
Mostly cloudy
 Wind from S
Wind: S 8 mph , 13 km/h
Temperature: 84°F , 29°C
Dew Point: 28°F , -2°C
Humidity: 13%
Barometer: 29.70 inHg , 1005.8 hPa
Clouds: Mostly cloudy
Visibility: 10 miles , 16 km
Cloud details: Few Clouds 12000 ft
Mostly cloudy 25000 ft
2017/04/27 02:47 KGEU 270247Z 19007KT 10SM FEW120 BKN250 29/M02 A2970 RMK LAST
 
KFFZ - Mesa/Falcon Field, Arizona, USA
Distance from station: SE 21mi, 33km
Updated: Wed 26 Apr 2017 1847 MST
NOT Current
Mostly cloudy
Mostly cloudy
 Wind from SSW
Wind: SSW 13 mph , 20 km/h
Barometer: 29.70 inHg , 1005.8 hPa
Clouds: Mostly cloudy
Visibility: 50 miles , 80 km
Cloud details: Mostly cloudy 20000 ft
2017/04/27 01:47 KFFZ 270147Z 21011KT 50SM BKN200 A2970
KLUF - Luke AFB/Glendale, Arizona, USA
Distance from station: WSW 23mi, 36km
Updated: Wed 26 Apr 2017 1958 MST
Clear
Clear
 Wind from SSW
Wind: SSW 13 mph , 20 km/h
Temperature: 84°F , 29°C
Dew Point: 27°F , -3°C
Humidity: 12%
Barometer: 29.68 inHg , 1005.1 hPa
Clouds: Clear
Visibility: 10 miles , 16 km
2017/04/27 02:58 KLUF 270258Z AUTO 21011KT 10SM CLR 29/M03 A2968 RMK AO2 SLP040
 
KGYR - Goodyear Municipal, Arizona, USA
Distance from station: SW 26mi, 42km
Updated: Wed 26 Apr 2017 1947 MST
Mostly cloudy
Mostly cloudy
 Wind from SW
Wind: SW 12 mph , 19 km/h
Temperature: 82°F , 28°C
Dew Point: 30°F , -1°C
Humidity: 15%
Barometer: 29.69 inHg , 1005.4 hPa
Clouds: Mostly cloudy
Visibility: 10 miles , 16 km
Cloud details: Few Clouds 15000 ft
Mostly cloudy 25000 ft
2017/04/27 02:47 KGYR 270247Z 23010KT 10SM FEW150 BKN250 28/M01 A2969
KIWA - Chandler/Mesa, Arizona, USA
Distance from station: SE 32mi, 51km
Updated: Wed 26 Apr 2017 1954 MST
Few Clouds
Few Clouds
 Wind from W
Wind: W 7 mph , 11 km/h
Temperature: 81°F , 27°C
Dew Point: 27°F , -3°C
Humidity: 14%
Barometer: 29.73 inHg , 1006.8 hPa
Clouds: Few Clouds
Visibility: 20 miles , 32 km
Cloud details: Few Clouds 20000 ft
2017/04/27 02:54 KIWA 270254Z 26006KT 20SM FEW200 27/M03 A2973
 
KBXK - Buckeye, Arizona, USA
Distance from station: WSW 42mi, 68km
Updated: Wed 26 Apr 2017 1955 MST
Clear
Clear
 Wind from SW
Wind: SW 9 mph , 15 km/h
Temperature: 81°F , 27°C
Dew Point: 27°F , -3°C
Humidity: 14%
Barometer: 29.70 inHg , 1005.8 hPa
Clouds: Clear
Visibility: 10 miles , 16 km
2017/04/27 02:55 KBXK 270255Z AUTO 22008KT 10SM CLR 27/M03 A2970 RMK AO1
KCGZ - Casa Grande, Arizona, USA
Distance from station: SSE 50mi, 81km
Updated: Wed 26 Apr 2017 1956 MST
Clear
Clear
 Wind from W
Wind: W 8 mph , 13 km/h
Temperature: 81°F , 27°C
Dew Point: 27°F , -3°C
Humidity: 14%
Barometer: 29.73 inHg , 1006.8 hPa
Clouds: Clear
2017/04/27 02:56 KCGZ 270256Z AUTO 28007KT CLR 27/M03 A2973 RMK AO2 SLP054 T02721033 55003 $
 
KPAN - Payson, Arizona, USA
Distance from station: NE 57mi, 91km
Updated: Wed 26 Apr 2017 1955 MST
Clear
Clear
 Wind from calm
Wind: Calm
Temperature: 61°F , 16°C
Dew Point: 21°F , -6°C
Humidity: 22%
Barometer: 29.92 inHg , 1013.2 hPa
Clouds: Clear
Visibility: 10 miles , 16 km
2017/04/27 02:55 KPAN 270255Z AUTO 00000KT 10SM CLR 16/M06 A2992 RMK AO2
KGBN - Gila Bend (aaf), Arizona, USA
Distance from station: SW 68mi, 109km
Updated: Wed 13 Feb 2013 1755 MST
NOT Current
Clear
Clear
 Wind from NNE
Wind: NNE 6 mph , 9 km/h
Temperature: 61°F , 16°C
Dew Point: 19°F , -7°C
Humidity: 20%
Barometer: 30.12 inHg , 1020 hPa
Clouds: Clear
Visibility: 90 miles , 144 km
2013/02/14 00:55 KGBN 140055Z 02005KT 90SM SKC 16/M07 A3012 RMK SLP204
 
KPRC - Prescott, Arizona, USA
Distance from station: NNW 73mi, 118km
Updated: Wed 26 Apr 2017 1953 MST
Clear
Clear
 Wind from S
Wind: S 7 mph , 11 km/h
Temperature: 63°F , 17°C
Dew Point: 21°F , -6°C
Humidity: 20%
Barometer: 29.88 inHg , 1011.9 hPa
Clouds: Clear
Visibility: 10 miles , 16 km
2017/04/27 02:53 KPRC 270253Z 19006KT 10SM CLR 17/M06 A2988 RMK AO2 SLP061 T01721056 52003
KSEZ - Sedona, Arizona, USA
Distance from station: N 84mi, 135km
Updated: Wed 26 Apr 2017 1955 MST
Clear
Clear
 Wind from W
Wind: W 12 mph , 19 km/h
Temperature: 64°F , 18°C
Dew Point: 27°F , -3°C
Humidity: 24%
Barometer: 29.85 inHg , 1010.8 hPa
Clouds: Clear
Visibility: 10 miles , 16 km
2017/04/27 02:55 KSEZ 270255Z AUTO 26010KT 10SM CLR 18/M03 A2985 RMK AO2
 
KFLG - Flagstaff, Arizona, USA
Distance from station: N 105mi, 168km
Updated: Wed 26 Apr 2017 1957 MST
Clear
Clear
 Wind from WSW
Wind: WSW 13 mph , 20 km/h, Gust: 21 mph , 33 km/h
Temperature: 54°F , 12°C
Dew Point: 23°F , -5°C
Humidity: 30%
Barometer: 29.93 inHg , 1013.5 hPa
Clouds: Clear
Visibility: 10 miles , 16 km
2017/04/27 02:57 KFLG 270257Z 24011G18KT 10SM CLR 12/M05 A2993 RMK AO2 SLP069 T01221050 53009
KRYN - Tucson/Ryan Field, Arizona, USA
Distance from station: SSE 114mi, 184km
Updated: Wed 26 Apr 2017 1945 MST
Clear
Clear
 Wind from SW
Wind: SW 10 mph , 17 km/h
Temperature: 79°F , 26°C
Dew Point: 25°F , -4°C
Humidity: 13%
Barometer: 29.79 inHg , 1008.8 hPa
Clouds: Clear
Visibility: 10 miles , 16 km
2017/04/27 02:45 KRYN 270245Z 23009KT 10SM CLR 26/M04 A2979 RMK LAST
 
KCMR - Williams Clark, Arizona, USA
Distance from station: N 115mi, 185km
Updated: Wed 26 Apr 2017 1955 MST
Overcast
Overcast
 Wind from WSW
Wind: WSW 13 mph , 20 km/h, Gust: 22 mph , 35 km/h
Temperature: 57°F , 14°C
Dew Point: 23°F , -5°C
Humidity: 27%
Barometer: 29.92 inHg , 1013.2 hPa
Clouds: Overcast
Visibility: 10 miles , 16 km
Cloud details: Partly cloudy 6500 ft
Mostly cloudy 8000 ft
Overcast 9500 ft
2017/04/27 02:55 KCMR 270255Z AUTO 24011G19KT 10SM SCT065 BKN080 OVC095 14/M05 A2992 RMK AO2
KINW - Winslow, Arizona, USA
Distance from station: NE 121mi, 194km
Updated: Wed 26 Apr 2017 1956 MST
Few Clouds
Few Clouds
 Wind from WSW
Wind: WSW 23 mph , 37 km/h, Gust: 28 mph , 44 km/h
Temperature: 66°F , 19°C
Dew Point: 28°F , -2°C
Humidity: 24%
Barometer: 29.81 inHg , 1009.5 hPa
Clouds: Few Clouds
Visibility: 10 miles , 16 km
Cloud details: Few Clouds 10000 ft
2017/04/27 02:56 KINW 270256Z AUTO 24020G24KT 10SM FEW100 19/M02 A2981 RMK AO2 PK WND 25031/0212 SLP047 T01891022 53006
 
KTUS - Tucson, Arizona, USA
Distance from station: SSE 121mi, 195km
Updated: Wed 26 Apr 2017 1953 MST
Clear
Clear
 Wind from WSW
Wind: WSW 7 mph , 11 km/h
Temperature: 79°F , 26°C
Dew Point: 23°F , -5°C
Humidity: 12%
Barometer: 29.80 inHg , 1009.1 hPa
Clouds: Clear
Visibility: 10 miles , 16 km
2017/04/27 02:53 KTUS 270253Z 25006KT 10SM CLR 26/M05 A2980 RMK AO2 SLP052 T02561050 55006
KDMA - Davis AFB/Tucson, Arizona, USA
Distance from station: SE 122mi, 196km
Updated: Wed 26 Apr 2017 1958 MST
Clear
Clear
 Wind from W
Wind: W 6 mph , 9 km/h
Temperature: 77°F , 25°C
Dew Point: 23°F , -5°C
Humidity: 13%
Barometer: 29.80 inHg , 1009.1 hPa
Clouds: Clear
Visibility: 9 miles , 14 km
2017/04/27 02:58 KDMA 270258Z AUTO 26005KT 9SM CLR 25/M05 A2980 RMK AO2 SLP055 T02481052 55005 $
 
KSOW - Show Low Municipal, Arizona, USA
Distance from station: ENE 123mi, 198km
Updated: Wed 26 Apr 2017 1955 MST
Clear
Clear
 Wind from SSW
Wind: SSW 15 mph , 24 km/h
Temperature: 54°F , 12°C
Dew Point: 18°F , -8°C
Humidity: 24%
Barometer: 29.94 inHg , 1013.9 hPa
Clouds: Clear
Visibility: 10 miles , 16 km
2017/04/27 02:55 KSOW 270255Z AUTO 21013KT 10SM CLR 12/M08 A2994 RMK AO2
KSAD - Safford, Arizona, USA
Distance from station: ESE 148mi, 238km
Updated: Wed 26 Apr 2017 1951 MST
Clear
Clear
 Wind from WNW
Wind: WNW 10 mph , 17 km/h
Temperature: 73°F , 23°C
Dew Point: 21°F , -6°C
Humidity: 14%
Barometer: 29.78 inHg , 1008.5 hPa
Clouds: Clear
Visibility: 10 miles , 16 km
2017/04/27 02:51 KSAD 270251Z AUTO 30009KT 10SM CLR 23/M06 A2978 RMK AO2 SLP042 T02281061 53008